createdAt,value
2019-01-24T00:00:31.197Z,12.37
2019-01-24T00:02:59.005Z,11.83
2019-01-24T00:05:26.482Z,12.03
2019-01-24T00:07:54.028Z,11.77
2019-01-24T00:10:21.803Z,12.07
2019-01-24T00:12:49.366Z,10.23
2019-01-24T00:15:16.884Z,10.83
2019-01-24T00:17:44.306Z,8.80
2019-01-24T00:20:12.165Z,8.00
2019-01-24T00:22:39.762Z,11.47
2019-01-24T00:25:07.948Z,11.83
2019-01-24T00:27:35.396Z,9.40
2019-01-24T00:30:03.689Z,9.03
2019-01-24T00:32:31.194Z,8.30
2019-01-24T00:34:58.654Z,11.40
2019-01-24T00:37:26.154Z,11.13
2019-01-24T00:39:53.869Z,10.83
2019-01-24T00:42:21.410Z,9.53
2019-01-24T00:44:48.874Z,10.10
2019-01-24T00:47:16.305Z,13.27
2019-01-24T00:49:43.851Z,10.30
2019-01-24T00:52:11.449Z,8.63
2019-01-24T00:54:38.935Z,7.90
2019-01-24T00:57:06.487Z,6.50
2019-01-24T00:59:34.006Z,4.60
2019-01-24T01:02:01.596Z,5.50
2019-01-24T01:04:29.848Z,4.23
2019-01-24T01:06:57.845Z,8.90
2019-01-24T01:09:25.489Z,7.47
2019-01-24T01:11:53.027Z,7.63
2019-01-24T01:14:20.436Z,9.10
2019-01-24T01:16:48.008Z,6.40
2019-01-24T01:19:15.552Z,6.07
2019-01-24T01:21:43.023Z,7.20
2019-01-24T01:24:10.610Z,6.43
2019-01-24T01:26:38.196Z,4.87
2019-01-24T01:29:05.660Z,6.13
2019-01-24T01:31:33.339Z,5.47
2019-01-24T01:34:00.801Z,5.13
2019-01-24T01:36:28.298Z,4.30
2019-01-24T01:38:55.965Z,5.97
2019-01-24T01:41:23.443Z,4.13
2019-01-24T01:43:51.016Z,4.43
2019-01-24T01:46:18.462Z,6.20
2019-01-24T01:48:46.027Z,3.67
2019-01-24T01:51:13.533Z,5.27
2019-01-24T01:53:41.126Z,6.20
2019-01-24T01:56:08.698Z,4.87
2019-01-24T01:58:36.206Z,4.27
2019-01-24T02:01:04.857Z,4.00
2019-01-24T02:03:32.315Z,4.70
2019-01-24T02:05:59.895Z,5.03
2019-01-24T02:08:27.401Z,5.33
2019-01-24T02:10:54.984Z,5.10
2019-01-24T02:13:22.447Z,5.80
2019-01-24T02:15:50.059Z,4.30
2019-01-24T02:18:17.597Z,3.53
2019-01-24T02:20:45.215Z,3.60
2019-01-24T02:23:12.889Z,2.13
2019-01-24T02:25:40.323Z,3.60
2019-01-24T02:28:07.783Z,2.00
2019-01-24T02:30:35.354Z,1.70
2019-01-24T02:33:02.996Z,2.03
2019-01-24T02:35:30.529Z,1.80
2019-01-24T02:37:58.068Z,1.93
2019-01-24T02:40:25.673Z,1.90
2019-01-24T02:42:53.156Z,2.27
2019-01-24T02:45:22.011Z,1.57
2019-01-24T02:47:49.943Z,1.43
2019-01-24T02:50:18.806Z,2.90
2019-01-24T02:52:46.469Z,1.60
2019-01-24T02:55:14.815Z,2.63
2019-01-24T02:57:42.823Z,1.97
2019-01-24T03:00:18.702Z,1.97
2019-01-24T03:02:46.330Z,1.77
2019-01-24T03:05:15.720Z,1.93
2019-01-24T03:07:43.423Z,1.43
2019-01-24T03:10:12.145Z,1.43
2019-01-24T03:12:39.905Z,2.30
2019-01-24T03:15:09.412Z,1.77
2019-01-24T03:17:36.783Z,1.53
2019-01-24T03:20:05.300Z,1.70
2019-01-24T03:22:32.741Z,1.83
2019-01-24T03:25:00.229Z,2.30
2019-01-24T03:27:27.952Z,1.50
2019-01-24T03:29:55.581Z,2.20
2019-01-24T03:32:23.524Z,1.10
2019-01-24T03:34:51.023Z,1.10
2019-01-24T03:37:18.725Z,2.00
2019-01-24T03:39:46.399Z,1.30
2019-01-24T03:42:13.889Z,2.20
2019-01-24T03:44:41.441Z,1.63
2019-01-24T03:47:08.897Z,0.83
2019-01-24T03:49:36.371Z,1.20
2019-01-24T03:52:03.904Z,1.93
2019-01-24T03:54:31.433Z,2.03
2019-01-24T03:56:59.285Z,1.40
2019-01-24T03:59:27.054Z,1.90
2019-01-24T04:01:54.690Z,1.20
2019-01-24T04:04:22.464Z,1.63
2019-01-24T04:06:50.061Z,1.90
2019-01-24T04:09:17.700Z,2.20
2019-01-24T04:11:45.232Z,1.37
2019-01-24T04:14:12.725Z,2.03
2019-01-24T04:16:40.462Z,0.97
2019-01-24T04:19:08.198Z,0.90
2019-01-24T04:21:35.811Z,1.10
2019-01-24T04:24:03.573Z,0.90
2019-01-24T04:26:31.048Z,0.97
2019-01-24T04:28:58.513Z,1.23
2019-01-24T04:31:26.015Z,1.47
2019-01-24T04:33:53.512Z,1.60
2019-01-24T04:36:21.227Z,1.37
2019-01-24T04:38:48.767Z,1.30
2019-01-24T04:41:16.408Z,1.10
2019-01-24T04:43:43.934Z,0.83
2019-01-24T04:46:11.576Z,1.27
2019-01-24T04:48:39.075Z,1.43
2019-01-24T04:51:06.598Z,1.30
2019-01-24T04:53:34.363Z,1.20
2019-01-24T04:56:01.978Z,6.27
2019-01-24T04:58:29.475Z,3.97
2019-01-24T05:00:57.235Z,4.97
2019-01-24T05:03:24.844Z,4.03
2019-01-24T05:05:52.522Z,9.37
2019-01-24T05:08:20.049Z,2.50
2019-01-24T05:10:47.418Z,2.10
2019-01-24T05:13:14.969Z,2.23
2019-01-24T05:15:42.498Z,3.03
2019-01-24T05:18:10.205Z,2.87
2019-01-24T05:20:37.767Z,4.27
2019-01-24T05:23:05.217Z,14.73
2019-01-24T05:25:32.712Z,9.10
2019-01-24T05:28:00.213Z,10.60
2019-01-24T05:30:28.481Z,21.43
2019-01-24T05:32:56.001Z,16.40
2019-01-24T05:35:23.639Z,11.90
2019-01-24T05:37:51.117Z,10.23
2019-01-24T05:40:18.555Z,13.33
2019-01-24T05:42:46.021Z,8.47
2019-01-24T05:45:13.998Z,9.73
2019-01-24T05:47:41.567Z,8.50
2019-01-24T05:50:10.097Z,11.07
2019-01-24T05:52:37.696Z,14.50
2019-01-24T05:55:06.074Z,20.97
2019-01-24T05:57:33.554Z,9.97
2019-01-24T06:00:01.742Z,10.13
2019-01-24T06:02:29.272Z,8.00
2019-01-24T06:04:56.869Z,8.43
2019-01-24T06:07:25.904Z,6.47
2019-01-24T06:09:53.489Z,6.73
2019-01-24T06:12:21.071Z,6.60
2019-01-24T06:14:48.523Z,4.67
2019-01-24T06:17:15.952Z,4.57
2019-01-24T06:19:43.337Z,4.93
2019-01-24T06:22:10.853Z,4.17
2019-01-24T06:24:38.424Z,4.17
2019-01-24T06:27:05.860Z,4.27
2019-01-24T06:29:33.282Z,5.03
2019-01-24T06:32:00.750Z,6.03
2019-01-24T06:34:28.279Z,6.40
2019-01-24T06:36:55.846Z,6.43
2019-01-24T06:39:23.354Z,7.23
2019-01-24T06:41:50.787Z,8.47
2019-01-24T06:44:18.224Z,7.40
2019-01-24T06:46:45.676Z,6.30
2019-01-24T06:49:13.264Z,8.83
2019-01-24T06:51:40.687Z,6.87
2019-01-24T06:54:08.360Z,8.87
2019-01-24T06:56:35.760Z,9.97
2019-01-24T06:59:03.503Z,7.30
2019-01-24T07:01:31.055Z,8.53
2019-01-24T07:03:58.587Z,6.27
2019-01-24T07:06:26.031Z,6.97
2019-01-24T07:08:53.645Z,5.90
2019-01-24T07:11:21.133Z,6.03
2019-01-24T07:13:48.671Z,6.80
2019-01-24T07:16:16.094Z,7.30
2019-01-24T07:18:43.577Z,5.13
2019-01-24T07:21:11.131Z,6.23
2019-01-24T07:23:38.604Z,8.50
2019-01-24T07:26:06.349Z,14.50
2019-01-24T07:28:36.438Z,12.83
2019-01-24T07:31:04.313Z,13.90
2019-01-24T07:33:31.763Z,11.00
2019-01-24T07:36:02.333Z,10.00
2019-01-24T07:38:28.628Z,9.73
2019-01-24T07:40:56.310Z,9.37
2019-01-24T07:43:23.905Z,8.63
2019-01-24T07:45:51.425Z,10.30
2019-01-24T07:48:18.856Z,11.57
2019-01-24T07:50:46.303Z,35.90
2019-01-24T07:53:15.478Z,19.00
2019-01-24T07:55:42.997Z,21.33
2019-01-24T07:58:10.579Z,11.63
2019-01-24T08:00:38.004Z,11.90
2019-01-24T08:03:06.015Z,10.60
2019-01-24T08:05:33.800Z,11.20
2019-01-24T08:08:01.531Z,15.17
2019-01-24T08:10:29.155Z,10.67
2019-01-24T08:12:56.634Z,15.50
2019-01-24T08:15:24.635Z,13.30
2019-01-24T08:17:52.240Z,12.50
2019-01-24T08:20:21.987Z,15.97
2019-01-24T08:22:49.670Z,11.23
2019-01-24T08:25:17.416Z,11.43
2019-01-24T08:27:44.921Z,14.27
2019-01-24T08:30:26.537Z,11.73
2019-01-24T08:32:54.297Z,10.88
2019-01-24T08:35:22.116Z,12.27
2019-01-24T08:37:49.509Z,11.30
2019-01-24T08:40:17.633Z,14.17
2019-01-24T08:42:45.164Z,15.45
2019-01-24T08:45:13.010Z,13.67
2019-01-24T08:47:40.535Z,9.13
2019-01-24T08:50:11.297Z,22.10
2019-01-24T08:52:38.722Z,11.87
2019-01-24T08:55:10.683Z,9.93
2019-01-24T08:57:38.262Z,8.00
2019-01-24T09:00:06.683Z,6.50
2019-01-24T09:02:34.126Z,5.33
2019-01-24T09:05:01.618Z,5.87
2019-01-24T09:07:29.283Z,7.17
2019-01-24T09:09:56.922Z,8.30
2019-01-24T09:12:30.228Z,5.53
2019-01-24T09:14:54.336Z,6.80
2019-01-24T09:17:22.042Z,4.50
2019-01-24T09:19:49.472Z,6.07
2019-01-24T09:22:16.954Z,5.77
2019-01-24T09:24:46.060Z,6.00
2019-01-24T09:27:13.499Z,8.77
2019-01-24T09:29:42.307Z,10.63
2019-01-24T09:32:12.322Z,9.73
2019-01-24T09:34:43.471Z,5.07
2019-01-24T09:37:14.253Z,7.00
2019-01-24T09:39:44.490Z,5.97
2019-01-24T09:42:12.162Z,7.00
2019-01-24T09:44:39.592Z,6.37
2019-01-24T09:47:07.233Z,6.77
2019-01-24T09:49:34.724Z,7.40
2019-01-24T09:52:02.157Z,5.17
2019-01-24T09:54:29.676Z,5.93
2019-01-24T09:56:57.400Z,6.83
2019-01-24T09:59:24.903Z,7.63
2019-01-24T10:01:52.569Z,9.20
2019-01-24T10:04:20.719Z,8.57
2019-01-24T10:06:49.109Z,11.20
2019-01-24T10:09:17.039Z,11.57
2019-01-24T10:11:46.086Z,8.63
2019-01-24T10:14:15.617Z,6.87
2019-01-24T10:16:43.451Z,11.07
2019-01-24T10:19:11.005Z,7.57
2019-01-24T10:21:38.594Z,7.97
2019-01-24T10:24:06.059Z,5.23
2019-01-24T10:26:33.545Z,9.30
2019-01-24T10:29:01.077Z,6.37
2019-01-24T10:31:29.711Z,6.37
2019-01-24T10:33:57.593Z,5.50
2019-01-24T10:36:25.144Z,4.37
2019-01-24T10:38:52.816Z,3.17
2019-01-24T10:41:20.530Z,4.43
2019-01-24T10:43:48.310Z,5.53
2019-01-24T10:46:15.841Z,5.43
2019-01-24T10:48:43.563Z,4.03
2019-01-24T10:51:11.200Z,4.23
2019-01-24T10:53:38.879Z,6.20
2019-01-24T10:56:07.272Z,5.57
2019-01-24T10:58:34.798Z,3.80
2019-01-24T11:01:03.015Z,7.37
2019-01-24T11:03:30.739Z,6.33
2019-01-24T11:05:58.337Z,3.83
2019-01-24T11:08:26.076Z,3.83
2019-01-24T11:10:53.727Z,9.60
2019-01-24T11:13:21.666Z,9.13
2019-01-24T11:15:49.182Z,5.67
2019-01-24T11:18:17.071Z,7.00
2019-01-24T11:20:44.742Z,7.13
2019-01-24T11:23:12.309Z,7.10
2019-01-24T11:25:40.112Z,9.90
2019-01-24T11:28:08.084Z,9.83
2019-01-24T11:30:36.050Z,8.40
2019-01-24T11:33:05.007Z,10.80
2019-01-24T11:35:34.267Z,7.00
2019-01-24T11:38:01.758Z,9.73
2019-01-24T11:40:29.564Z,7.83
2019-01-24T11:42:57.049Z,6.67
2019-01-24T11:45:27.426Z,9.13
2019-01-24T11:47:54.943Z,8.43
2019-01-24T11:50:22.682Z,6.80
2019-01-24T11:52:52.591Z,6.97
2019-01-24T11:55:25.176Z,12.83
2019-01-24T11:57:52.766Z,5.43
2019-01-24T12:00:23.574Z,8.53
2019-01-24T12:02:51.243Z,6.80
2019-01-24T12:05:19.063Z,9.67
2019-01-24T12:07:46.729Z,7.57
2019-01-24T12:10:17.714Z,6.27
2019-01-24T12:12:45.255Z,10.27
2019-01-24T12:15:14.623Z,8.27
2019-01-24T12:17:42.354Z,8.30
2019-01-24T12:20:13.693Z,8.60
2019-01-24T12:22:41.339Z,8.30
2019-01-24T12:25:09.420Z,8.70
2019-01-24T12:27:36.937Z,11.73
2019-01-24T12:30:07.711Z,7.53
2019-01-24T12:32:35.359Z,7.57
2019-01-24T12:35:03.426Z,9.03
2019-01-24T12:37:31.042Z,8.07
2019-01-24T12:39:58.885Z,9.80
2019-01-24T12:42:26.415Z,10.20
2019-01-24T12:44:54.117Z,10.60
2019-01-24T12:47:21.857Z,16.47
2019-01-24T12:49:49.467Z,15.50
2019-01-24T12:52:16.968Z,11.23
2019-01-24T12:54:44.723Z,13.27
2019-01-24T12:57:12.307Z,12.93
2019-01-24T12:59:40.018Z,10.93
2019-01-24T13:02:07.879Z,10.07
2019-01-24T13:04:35.397Z,8.13
2019-01-24T13:07:02.984Z,11.83
2019-01-24T13:09:30.809Z,16.50
2019-01-24T13:12:09.313Z,18.97
2019-01-24T13:14:37.040Z,16.93
2019-01-24T13:17:04.874Z,14.37
2019-01-24T13:19:32.425Z,17.00
2019-01-24T13:22:00.141Z,12.70
2019-01-24T13:24:28.672Z,13.03
2019-01-24T13:26:56.230Z,14.47
2019-01-24T13:29:23.799Z,14.73
2019-01-24T13:31:51.526Z,13.10
2019-01-24T13:34:19.162Z,11.87
2019-01-24T13:36:46.702Z,14.23
2019-01-24T13:39:14.274Z,16.83
2019-01-24T13:41:42.610Z,10.83
2019-01-24T13:44:10.747Z,9.93
2019-01-24T13:46:38.334Z,11.73
2019-01-24T13:49:05.939Z,12.67
2019-01-24T13:51:33.493Z,13.70
2019-01-24T13:54:01.246Z,12.27
2019-01-24T13:56:28.868Z,12.37
2019-01-24T13:58:56.529Z,10.27
2019-01-24T14:01:24.184Z,14.13
2019-01-24T14:03:59.104Z,12.87
2019-01-24T14:06:27.206Z,12.03
2019-01-24T14:08:54.859Z,17.40
2019-01-24T14:11:22.518Z,14.13
2019-01-24T14:13:50.224Z,16.10
2019-01-24T14:16:17.967Z,17.90
2019-01-24T14:18:45.466Z,15.83
2019-01-24T14:21:12.961Z,12.77
2019-01-24T14:23:40.718Z,14.10
2019-01-24T14:26:08.707Z,16.33
2019-01-24T14:28:36.473Z,15.00
2019-01-24T14:31:04.271Z,15.47
2019-01-24T14:33:32.611Z,13.70
2019-01-24T14:36:00.989Z,15.03
2019-01-24T14:38:29.945Z,13.27
2019-01-24T14:40:57.905Z,15.30
2019-01-24T14:43:26.443Z,14.50
2019-01-24T14:45:54.759Z,16.97
2019-01-24T14:48:24.038Z,14.83
2019-01-24T14:50:52.264Z,17.97
2019-01-24T14:53:20.208Z,16.17
2019-01-24T14:55:48.045Z,16.97
2019-01-24T14:58:15.691Z,15.83
2019-01-24T15:00:53.592Z,15.00
2019-01-24T15:03:21.457Z,15.87
2019-01-24T15:05:49.223Z,13.40
2019-01-24T15:08:17.028Z,12.87
2019-01-24T15:10:44.512Z,18.67
2019-01-24T15:13:12.207Z,16.70
2019-01-24T15:15:40.026Z,14.17
2019-01-24T15:18:07.769Z,13.37
2019-01-24T15:20:35.415Z,14.30
2019-01-24T15:23:03.377Z,14.83
2019-01-24T15:25:30.987Z,13.10
2019-01-24T15:27:58.937Z,13.20
2019-01-24T15:30:27.266Z,14.03
2019-01-24T15:32:55.343Z,12.57
2019-01-24T15:35:23.025Z,13.53
2019-01-24T15:37:54.575Z,11.13
2019-01-24T15:40:23.376Z,12.17
2019-01-24T15:42:51.103Z,11.70
2019-01-24T15:45:19.217Z,11.80
2019-01-24T15:47:47.180Z,12.63
2019-01-24T15:50:17.241Z,14.93
2019-01-24T15:52:46.352Z,11.83
2019-01-24T15:55:14.156Z,10.17
2019-01-24T15:57:41.967Z,13.30
2019-01-24T16:00:16.523Z,23.43
2019-01-24T16:02:44.495Z,17.77
2019-01-24T16:05:12.715Z,12.47
2019-01-24T16:07:40.287Z,13.83
2019-01-24T16:10:11.385Z,12.13
2019-01-24T16:12:39.396Z,12.10
2019-01-24T16:15:10.423Z,10.00
2019-01-24T16:17:37.974Z,13.40
2019-01-24T16:20:08.450Z,11.00
2019-01-24T16:22:36.053Z,11.23
2019-01-24T16:25:04.464Z,14.37
2019-01-24T16:27:32.413Z,17.60
2019-01-24T16:30:01.343Z,15.60
2019-01-24T16:32:29.241Z,12.43
2019-01-24T16:34:56.871Z,13.60
2019-01-24T16:37:24.578Z,10.83
2019-01-24T16:39:52.167Z,15.83
2019-01-24T16:42:19.702Z,13.27
2019-01-24T16:44:47.271Z,11.00
2019-01-24T16:47:14.918Z,10.87
2019-01-24T16:49:42.521Z,8.00
2019-01-24T16:52:10.095Z,7.40
2019-01-24T16:54:37.932Z,12.60
2019-01-24T16:57:05.535Z,10.93
2019-01-24T16:59:33.195Z,7.47
2019-01-24T17:02:00.840Z,8.37
2019-01-24T17:04:28.670Z,10.33
2019-01-24T17:06:56.586Z,9.37
2019-01-24T17:09:24.146Z,9.00
2019-01-24T17:11:51.950Z,9.83
2019-01-24T17:14:22.422Z,8.47
2019-01-24T17:16:49.566Z,8.93
2019-01-24T17:19:17.057Z,9.40
2019-01-24T17:21:44.563Z,10.17
2019-01-24T17:24:12.020Z,11.77
2019-01-24T17:26:40.014Z,11.33
2019-01-24T17:29:07.661Z,11.63
2019-01-24T17:31:35.277Z,13.63
2019-01-24T17:34:02.874Z,20.33
2019-01-24T17:36:30.485Z,20.30
2019-01-24T17:38:57.971Z,13.10
2019-01-24T17:41:26.377Z,14.67
2019-01-24T17:43:54.212Z,16.00
2019-01-24T17:46:21.832Z,14.60
2019-01-24T17:48:49.407Z,21.33
2019-01-24T17:51:16.985Z,22.67
2019-01-24T17:53:44.729Z,18.53
2019-01-24T17:56:12.485Z,16.10
2019-01-24T17:58:40.202Z,18.20
2019-01-24T18:01:07.908Z,21.83
2019-01-24T18:03:35.439Z,21.30
2019-01-24T18:06:03.786Z,16.03
2019-01-24T18:08:31.660Z,14.30
2019-01-24T18:10:59.250Z,14.17
2019-01-24T18:13:26.912Z,16.10
2019-01-24T18:15:54.896Z,17.13
2019-01-24T18:18:23.153Z,16.50
2019-01-24T18:20:51.654Z,15.97
2019-01-24T18:23:20.002Z,19.30
2019-01-24T18:25:48.048Z,15.77
2019-01-24T18:28:15.851Z,19.23
2019-01-24T18:30:43.950Z,21.27
2019-01-24T18:33:11.804Z,21.40
2019-01-24T18:35:39.503Z,29.10
2019-01-24T18:38:07.674Z,22.70
2019-01-24T18:40:35.600Z,20.07
2019-01-24T18:43:04.859Z,16.20
2019-01-24T18:45:35.809Z,18.40
2019-01-24T18:48:05.716Z,21.43
2019-01-24T18:50:34.896Z,21.33
2019-01-24T18:53:02.631Z,20.70
2019-01-24T18:55:30.191Z,17.37
2019-01-24T18:57:57.995Z,19.27
2019-01-24T19:00:33.145Z,18.20
2019-01-24T19:03:01.180Z,16.60
2019-01-24T19:05:29.195Z,16.97
2019-01-24T19:07:56.971Z,17.07
2019-01-24T19:10:24.850Z,19.40
2019-01-24T19:12:52.519Z,18.10
2019-01-24T19:15:20.336Z,14.30
2019-01-24T19:17:48.122Z,15.93
2019-01-24T19:20:16.625Z,18.73
2019-01-24T19:22:44.495Z,14.83
2019-01-24T19:25:12.338Z,11.63
2019-01-24T19:27:39.949Z,13.80
2019-01-24T19:30:21.035Z,13.97
2019-01-24T19:32:48.871Z,15.47
2019-01-24T19:35:16.420Z,19.43
2019-01-24T19:37:44.397Z,17.47
2019-01-24T19:40:14.054Z,12.90
2019-01-24T19:42:41.635Z,12.30
2019-01-24T19:45:12.057Z,14.47
2019-01-24T19:47:39.692Z,13.83
2019-01-24T19:50:10.089Z,12.67
2019-01-24T19:52:37.801Z,14.90
2019-01-24T19:55:05.955Z,12.07
2019-01-24T19:57:33.495Z,12.97
2019-01-24T20:00:01.451Z,13.20
2019-01-24T20:02:29.032Z,14.53
2019-01-24T20:04:56.538Z,12.63
2019-01-24T20:07:24.089Z,12.33
2019-01-24T20:09:51.772Z,11.20
2019-01-24T20:12:19.383Z,11.20
2019-01-24T20:14:47.094Z,15.30
2019-01-24T20:17:14.614Z,11.30
2019-01-24T20:19:42.186Z,12.27
2019-01-24T20:22:09.927Z,13.57
2019-01-24T20:24:37.473Z,11.40
2019-01-24T20:27:06.387Z,13.27
2019-01-24T20:29:34.082Z,12.07
2019-01-24T20:32:01.802Z,14.07
2019-01-24T20:34:29.378Z,14.70
2019-01-24T20:36:56.823Z,12.93
2019-01-24T20:39:24.329Z,15.20
2019-01-24T20:41:52.012Z,16.07
2019-01-24T20:44:19.742Z,14.43
2019-01-24T20:46:47.213Z,14.90
2019-01-24T20:49:14.705Z,13.63
2019-01-24T20:51:42.245Z,14.03
2019-01-24T20:54:09.817Z,17.07
2019-01-24T20:56:37.303Z,15.13
2019-01-24T20:59:04.884Z,16.83
2019-01-24T21:01:32.370Z,16.53
2019-01-24T21:04:00.195Z,15.20
2019-01-24T21:06:28.243Z,15.83
2019-01-24T21:08:55.950Z,19.03
2019-01-24T21:11:23.653Z,17.43
2019-01-24T21:13:51.350Z,17.53
2019-01-24T21:16:19.044Z,17.30
2019-01-24T21:18:46.704Z,17.97
2019-01-24T21:21:14.398Z,19.53
2019-01-24T21:23:41.904Z,16.80
2019-01-24T21:26:09.388Z,15.40
2019-01-24T21:28:37.173Z,15.47
2019-01-24T21:31:04.873Z,16.63
2019-01-24T21:33:32.473Z,15.27
2019-01-24T21:36:00.373Z,16.33
2019-01-24T21:38:28.712Z,18.70
2019-01-24T21:40:56.333Z,19.00
2019-01-24T21:43:23.779Z,16.80
2019-01-24T21:45:51.503Z,16.33
2019-01-24T21:48:19.902Z,17.87
2019-01-24T21:50:47.926Z,18.73
2019-01-24T21:53:16.217Z,18.87
2019-01-24T21:55:43.986Z,21.03
2019-01-24T21:58:11.596Z,18.50
2019-01-24T22:00:39.130Z,18.53
2019-01-24T22:03:06.938Z,22.87
2019-01-24T22:05:34.672Z,22.77
2019-01-24T22:08:02.542Z,18.60
2019-01-24T22:10:30.587Z,20.10
2019-01-24T22:12:59.044Z,20.70
2019-01-24T22:15:28.025Z,18.33
2019-01-24T22:17:56.113Z,19.93
2019-01-24T22:20:23.943Z,21.43
2019-01-24T22:22:51.620Z,19.90
2019-01-24T22:25:24.395Z,19.93
2019-01-24T22:27:52.177Z,19.10
2019-01-24T22:30:23.088Z,17.50
2019-01-24T22:32:50.523Z,17.47
2019-01-24T22:35:18.116Z,19.60
2019-01-24T22:37:45.808Z,21.60
2019-01-24T22:40:13.565Z,22.07
2019-01-24T22:42:41.177Z,24.60
2019-01-24T22:45:12.119Z,29.73
2019-01-24T22:47:39.655Z,31.80
2019-01-24T22:50:08.441Z,21.60
2019-01-24T22:52:36.026Z,26.20
2019-01-24T22:55:04.152Z,21.50
2019-01-24T22:57:31.568Z,21.63
2019-01-24T22:59:59.008Z,21.93
2019-01-24T23:02:29.040Z,21.10
2019-01-24T23:04:56.582Z,19.97
2019-01-24T23:07:24.039Z,24.43
2019-01-24T23:09:51.618Z,19.80
2019-01-24T23:12:19.148Z,22.23
2019-01-24T23:14:46.581Z,19.63
2019-01-24T23:17:14.092Z,19.20
2019-01-24T23:19:41.535Z,22.37
2019-01-24T23:22:09.020Z,18.33
2019-01-24T23:24:36.432Z,19.17
2019-01-24T23:27:04.271Z,20.97
2019-01-24T23:29:31.767Z,22.27
2019-01-24T23:31:59.235Z,19.17
2019-01-24T23:34:26.688Z,22.77
2019-01-24T23:36:54.175Z,21.30
2019-01-24T23:39:21.735Z,21.00
2019-01-24T23:41:49.274Z,22.77
2019-01-24T23:44:16.843Z,23.57
2019-01-24T23:46:44.408Z,23.97
2019-01-24T23:49:12.008Z,23.60
2019-01-24T23:51:39.628Z,28.00
2019-01-24T23:54:07.119Z,28.20
2019-01-24T23:56:34.660Z,34.07
2019-01-24T23:59:02.177Z,33.60
